This is the latest recevied weather packets stored in our database for station/object DC0PP-10. If no packets are shown the sender has not sent any weather packets the latest 10 day(s).
| Time | Temp. | Humidity | Pressure | Rain* | Wind** | Luminosity | Snow |
|---|---|---|---|---|---|---|---|
| 1777474534 | 24.44° C | 27% | 1019.7 hPa | - | - | - | - |
| 1777473634 | 24.44° C | 26% | 1019.9 hPa | - | - | - | - |
| 1777472733 | 25° C | 28% | 1019.8 hPa | - | - | - | - |
| 1777471833 | 25° C | 27% | 1019.8 hPa | - | - | - | - |
| 1777470933 | 25° C | 27% | 1019.7 hPa | - | - | - | - |
| 1777470033 | 25° C | 28% | 1019.7 hPa | - | - | - | - |
| 1777469133 | 25.56° C | 26% | 1019.9 hPa | - | - | - | - |
| 1777468233 | 24.44° C | 28% | 1019.9 hPa | - | - | - | - |
| 1777467332 | 23.89° C | 28% | 1020 hPa | - | - | - | - |
| 1777466432 | 24.44° C | 29% | 1020 hPa | - | - | - | - |
| 1777465535 | 24.44° C | 28% | 1020 hPa | - | - | - | - |
| 1777464635 | 24.44° C | 28% | 1020.1 hPa | - | - | - | - |
| 1777463735 | 23.89° C | 28% | 1020.1 hPa | - | - | - | - |
| 1777462835 | 25° C | 27% | 1020.1 hPa | - | - | - | - |
| 1777461935 | 24.44° C | 30% | 1020.1 hPa | - | - | - | - |
| 1777461035 | 23.89° C | 30% | 1020.2 hPa | - | - | - | - |
| 1777460135 | 23.33° C | 30% | 1020.4 hPa | - | - | - | - |
| 1777459234 | 23.33° C | 30% | 1020.5 hPa | - | - | - | - |
| 1777458334 | 23.89° C | 30% | 1020.4 hPa | - | - | - | - |
| 1777457434 | 23.89° C | 31% | 1020.6 hPa | - | - | - | - |
| 1777456534 | 23.89° C | 30% | 1020.6 hPa | - | - | - | - |
| 1777455634 | 21.67° C | 35% | 1020.6 hPa | - | - | - | - |
| 1777454734 | 23.33° C | 34% | 1020.8 hPa | - | - | - | - |
| 1777453833 | 25° C | 35% | 1020.5 hPa | - | - | - | - |
| 1777452933 | 24.44° C | 34% | 1020.6 hPa | - | - | - | - |
* Rain since midnight (hover to see other rain measurements)
** Current wind speed in m/s (hover to see current wind gust speed)